sensor_id;sensor_type;location;lat;lon;timestamp;P1;durP1;ratioP1;P2;durP2;ratioP2
70850;SDS011;58475;49.662;9.636;2023-05-10T00:00:31;5.32;;;2.58;;
70850;SDS011;58475;49.662;9.636;2023-05-10T00:02:56;4.18;;;2.10;;
70850;SDS011;58475;49.662;9.636;2023-05-10T00:05:22;4.68;;;2.47;;
70850;SDS011;58475;49.662;9.636;2023-05-10T00:07:47;5.50;;;2.20;;
70850;SDS011;58475;49.662;9.636;2023-05-10T00:10:13;5.15;;;2.28;;
70850;SDS011;58475;49.662;9.636;2023-05-10T00:12:38;4.65;;;2.33;;
70850;SDS011;58475;49.662;9.636;2023-05-10T00:15:03;4.25;;;2.30;;
70850;SDS011;58475;49.662;9.636;2023-05-10T00:17:29;5.40;;;2.45;;
70850;SDS011;58475;49.662;9.636;2023-05-10T00:19:54;3.97;;;2.40;;
70850;SDS011;58475;49.662;9.636;2023-05-10T00:22:20;6.80;;;2.65;;
70850;SDS011;58475;49.662;9.636;2023-05-10T00:24:46;4.63;;;2.55;;
70850;SDS011;58475;49.662;9.636;2023-05-10T00:27:11;3.20;;;2.10;;
70850;SDS011;58475;49.662;9.636;2023-05-10T00:29:36;5.22;;;2.83;;
70850;SDS011;58475;49.662;9.636;2023-05-10T00:32:02;3.65;;;2.30;;
70850;SDS011;58475;49.662;9.636;2023-05-10T00:34:27;4.95;;;2.42;;
70850;SDS011;58475;49.662;9.636;2023-05-10T00:36:53;4.55;;;2.50;;
70850;SDS011;58475;49.662;9.636;2023-05-10T00:39:18;4.43;;;2.35;;
70850;SDS011;58475;49.662;9.636;2023-05-10T00:41:44;4.60;;;2.45;;
70850;SDS011;58475;49.662;9.636;2023-05-10T00:44:10;3.85;;;2.10;;
70850;SDS011;58475;49.662;9.636;2023-05-10T00:46:35;4.40;;;2.22;;
70850;SDS011;58475;49.662;9.636;2023-05-10T00:49:01;4.72;;;2.38;;
70850;SDS011;58475;49.662;9.636;2023-05-10T00:51:28;5.10;;;2.20;;
70850;SDS011;58475;49.662;9.636;2023-05-10T00:53:54;4.75;;;2.20;;
70850;SDS011;58475;49.662;9.636;2023-05-10T00:56:21;5.28;;;2.20;;
70850;SDS011;58475;49.662;9.636;2023-05-10T00:58:48;4.85;;;2.03;;
70850;SDS011;58475;49.662;9.636;2023-05-10T01:01:13;4.63;;;2.10;;
70850;SDS011;58475;49.662;9.636;2023-05-10T01:03:39;4.03;;;2.10;;
70850;SDS011;58475;49.662;9.636;2023-05-10T01:06:04;3.90;;;2.08;;
70850;SDS011;58475;49.662;9.636;2023-05-10T01:08:30;3.65;;;2.35;;
70850;SDS011;58475;49.662;9.636;2023-05-10T01:10:56;3.13;;;1.90;;
70850;SDS011;58475;49.662;9.636;2023-05-10T01:13:35;3.95;;;1.77;;
70850;SDS011;58475;49.662;9.636;2023-05-10T01:16:03;1.60;;;1.20;;
70850;SDS011;58475;49.662;9.636;2023-05-10T01:18:29;3.13;;;1.23;;
70850;SDS011;58475;49.662;9.636;2023-05-10T01:21:04;1.77;;;1.10;;
70850;SDS011;58475;49.662;9.636;2023-05-10T01:35:23;4.43;;;1.13;;
70850;SDS011;58475;49.662;9.636;2023-05-10T01:37:59;1.05;;;0.93;;
70850;SDS011;58475;49.662;9.636;2023-05-10T01:40:32;1.27;;;0.98;;
70850;SDS011;58475;49.662;9.636;2023-05-10T01:43:03;1.52;;;0.90;;
70850;SDS011;58475;49.662;9.636;2023-05-10T01:48:24;1.10;;;1.00;;
70850;SDS011;58475;49.662;9.636;2023-05-10T01:50:53;1.13;;;1.00;;
70850;SDS011;58475;49.662;9.636;2023-05-10T01:53:19;1.08;;;1.08;;
70850;SDS011;58475;49.662;9.636;2023-05-10T01:55:47;1.70;;;0.98;;
70850;SDS011;58475;49.662;9.636;2023-05-10T01:58:22;1.58;;;0.85;;
70850;SDS011;58475;49.662;9.636;2023-05-10T02:00:52;1.20;;;0.90;;
70850;SDS011;58475;49.662;9.636;2023-05-10T02:03:20;1.10;;;0.98;;
70850;SDS011;58475;49.662;9.636;2023-05-10T02:05:48;1.92;;;1.10;;
70850;SDS011;58475;49.662;9.636;2023-05-10T02:08:14;1.08;;;1.00;;
70850;SDS011;58475;49.662;9.636;2023-05-10T02:10:42;1.10;;;1.10;;
70850;SDS011;58475;49.662;9.636;2023-05-10T02:13:09;2.00;;;0.95;;
70850;SDS011;58475;49.662;9.636;2023-05-10T02:15:36;1.00;;;0.90;;
70850;SDS011;58475;49.662;9.636;2023-05-10T02:18:03;1.45;;;1.05;;
70850;SDS011;58475;49.662;9.636;2023-05-10T02:20:30;1.10;;;1.00;;
70850;SDS011;58475;49.662;9.636;2023-05-10T02:22:57;1.65;;;1.15;;
70850;SDS011;58475;49.662;9.636;2023-05-10T02:25:23;1.85;;;1.02;;
70850;SDS011;58475;49.662;9.636;2023-05-10T02:27:49;1.02;;;0.93;;
70850;SDS011;58475;49.662;9.636;2023-05-10T02:30:16;1.13;;;1.02;;
70850;SDS011;58475;49.662;9.636;2023-05-10T02:32:44;2.35;;;0.90;;
70850;SDS011;58475;49.662;9.636;2023-05-10T02:35:10;2.25;;;1.00;;
70850;SDS011;58475;49.662;9.636;2023-05-10T02:37:39;1.50;;;1.20;;
70850;SDS011;58475;49.662;9.636;2023-05-10T02:40:05;1.17;;;1.05;;
70850;SDS011;58475;49.662;9.636;2023-05-10T02:42:32;1.15;;;1.00;;
70850;SDS011;58475;49.662;9.636;2023-05-10T02:45:04;1.10;;;1.00;;
70850;SDS011;58475;49.662;9.636;2023-05-10T02:47:32;1.08;;;1.05;;
70850;SDS011;58475;49.662;9.636;2023-05-10T02:49:58;1.65;;;1.10;;
70850;SDS011;58475;49.662;9.636;2023-05-10T02:52:25;3.42;;;1.00;;
70850;SDS011;58475;49.662;9.636;2023-05-10T02:54:54;1.33;;;1.15;;
70850;SDS011;58475;49.662;9.636;2023-05-10T02:57:25;1.20;;;1.10;;
70850;SDS011;58475;49.662;9.636;2023-05-10T02:59:52;1.48;;;1.20;;
70850;SDS011;58475;49.662;9.636;2023-05-10T03:02:18;2.00;;;1.10;;
70850;SDS011;58475;49.662;9.636;2023-05-10T03:04:43;1.70;;;1.20;;
70850;SDS011;58475;49.662;9.636;2023-05-10T03:07:09;1.30;;;1.10;;
70850;SDS011;58475;49.662;9.636;2023-05-10T03:09:34;2.05;;;1.30;;
70850;SDS011;58475;49.662;9.636;2023-05-10T03:14:42;1.15;;;1.00;;
70850;SDS011;58475;49.662;9.636;2023-05-10T03:17:29;1.90;;;1.13;;
70850;SDS011;58475;49.662;9.636;2023-05-10T03:20:04;0.93;;;0.93;;
70850;SDS011;58475;49.662;9.636;2023-05-10T03:22:37;1.20;;;1.10;;
70850;SDS011;58475;49.662;9.636;2023-05-10T03:25:12;3.97;;;1.42;;
70850;SDS011;58475;49.662;9.636;2023-05-10T03:27:41;2.25;;;1.55;;
70850;SDS011;58475;49.662;9.636;2023-05-10T03:30:10;1.52;;;1.13;;
70850;SDS011;58475;49.662;9.636;2023-05-10T03:32:37;1.33;;;1.20;;
70850;SDS011;58475;49.662;9.636;2023-05-10T03:35:06;1.88;;;1.30;;
70850;SDS011;58475;49.662;9.636;2023-05-10T03:37:36;1.50;;;1.40;;
70850;SDS011;58475;49.662;9.636;2023-05-10T03:40:02;2.40;;;1.70;;
70850;SDS011;58475;49.662;9.636;2023-05-10T03:42:30;1.73;;;1.30;;
70850;SDS011;58475;49.662;9.636;2023-05-10T03:44:56;2.80;;;1.40;;
70850;SDS011;58475;49.662;9.636;2023-05-10T03:47:21;1.92;;;1.10;;
70850;SDS011;58475;49.662;9.636;2023-05-10T03:49:46;2.15;;;1.30;;
70850;SDS011;58475;49.662;9.636;2023-05-10T03:52:12;2.00;;;1.10;;
70850;SDS011;58475;49.662;9.636;2023-05-10T03:54:37;1.67;;;1.10;;
70850;SDS011;58475;49.662;9.636;2023-05-10T03:57:04;2.35;;;1.17;;
70850;SDS011;58475;49.662;9.636;2023-05-10T03:59:30;1.60;;;1.20;;
70850;SDS011;58475;49.662;9.636;2023-05-10T04:01:56;3.75;;;1.70;;
70850;SDS011;58475;49.662;9.636;2023-05-10T04:04:21;4.00;;;1.67;;
70850;SDS011;58475;49.662;9.636;2023-05-10T04:06:48;2.58;;;1.33;;
70850;SDS011;58475;49.662;9.636;2023-05-10T04:09:14;1.30;;;1.20;;
70850;SDS011;58475;49.662;9.636;2023-05-10T04:11:40;2.88;;;1.42;;
70850;SDS011;58475;49.662;9.636;2023-05-10T04:14:05;2.45;;;1.20;;
70850;SDS011;58475;49.662;9.636;2023-05-10T04:16:30;1.98;;;1.10;;
70850;SDS011;58475;49.662;9.636;2023-05-10T04:18:56;1.60;;;1.23;;
70850;SDS011;58475;49.662;9.636;2023-05-10T04:21:21;2.90;;;1.40;;
70850;SDS011;58475;49.662;9.636;2023-05-10T04:23:46;1.67;;;1.20;;
70850;SDS011;58475;49.662;9.636;2023-05-10T04:26:12;2.75;;;1.30;;
70850;SDS011;58475;49.662;9.636;2023-05-10T04:28:38;4.05;;;1.30;;
70850;SDS011;58475;49.662;9.636;2023-05-10T04:31:04;2.70;;;1.35;;
70850;SDS011;58475;49.662;9.636;2023-05-10T04:33:30;2.63;;;1.30;;
70850;SDS011;58475;49.662;9.636;2023-05-10T04:35:56;4.70;;;1.65;;
70850;SDS011;58475;49.662;9.636;2023-05-10T04:38:21;1.58;;;1.40;;
70850;SDS011;58475;49.662;9.636;2023-05-10T04:40:46;3.28;;;1.42;;
70850;SDS011;58475;49.662;9.636;2023-05-10T04:43:12;1.55;;;1.10;;
70850;SDS011;58475;49.662;9.636;2023-05-10T04:45:37;1.80;;;1.30;;
70850;SDS011;58475;49.662;9.636;2023-05-10T04:48:02;2.10;;;1.33;;
70850;SDS011;58475;49.662;9.636;2023-05-10T04:50:28;2.40;;;1.40;;
70850;SDS011;58475;49.662;9.636;2023-05-10T04:52:53;2.83;;;1.40;;
70850;SDS011;58475;49.662;9.636;2023-05-10T04:55:18;1.40;;;1.30;;
70850;SDS011;58475;49.662;9.636;2023-05-10T04:57:44;1.92;;;1.40;;
70850;SDS011;58475;49.662;9.636;2023-05-10T05:00:10;2.55;;;1.50;;
70850;SDS011;58475;49.662;9.636;2023-05-10T05:02:36;1.88;;;1.20;;
70850;SDS011;58475;49.662;9.636;2023-05-10T05:05:01;4.97;;;1.33;;
70850;SDS011;58475;49.662;9.636;2023-05-10T05:07:26;2.00;;;1.40;;
70850;SDS011;58475;49.662;9.636;2023-05-10T05:09:52;3.63;;;1.40;;
70850;SDS011;58475;49.662;9.636;2023-05-10T05:12:17;3.25;;;1.50;;
70850;SDS011;58475;49.662;9.636;2023-05-10T05:14:43;2.70;;;1.50;;
70850;SDS011;58475;49.662;9.636;2023-05-10T05:17:08;3.25;;;1.40;;
70850;SDS011;58475;49.662;9.636;2023-05-10T05:19:33;2.42;;;1.50;;
70850;SDS011;58475;49.662;9.636;2023-05-10T05:21:59;2.35;;;1.60;;
70850;SDS011;58475;49.662;9.636;2023-05-10T05:24:24;3.60;;;1.35;;
70850;SDS011;58475;49.662;9.636;2023-05-10T05:26:49;4.53;;;1.73;;
70850;SDS011;58475;49.662;9.636;2023-05-10T05:29:15;2.33;;;1.50;;
70850;SDS011;58475;49.662;9.636;2023-05-10T05:31:40;4.97;;;1.65;;
70850;SDS011;58475;49.662;9.636;2023-05-10T05:34:06;3.83;;;1.63;;
70850;SDS011;58475;49.662;9.636;2023-05-10T05:36:31;1.77;;;1.30;;
70850;SDS011;58475;49.662;9.636;2023-05-10T05:38:57;2.00;;;1.42;;
70850;SDS011;58475;49.662;9.636;2023-05-10T05:41:23;1.60;;;1.23;;
70850;SDS011;58475;49.662;9.636;2023-05-10T05:43:49;2.40;;;1.40;;
70850;SDS011;58475;49.662;9.636;2023-05-10T05:46:15;2.55;;;1.50;;
70850;SDS011;58475;49.662;9.636;2023-05-10T05:48:40;3.72;;;1.80;;
70850;SDS011;58475;49.662;9.636;2023-05-10T05:51:06;3.20;;;1.63;;
70850;SDS011;58475;49.662;9.636;2023-05-10T05:53:31;5.18;;;1.77;;
70850;SDS011;58475;49.662;9.636;2023-05-10T05:55:57;3.88;;;2.17;;
70850;SDS011;58475;49.662;9.636;2023-05-10T05:58:24;4.60;;;2.45;;
70850;SDS011;58475;49.662;9.636;2023-05-10T06:00:50;4.03;;;2.13;;
70850;SDS011;58475;49.662;9.636;2023-05-10T06:03:17;4.95;;;2.20;;
70850;SDS011;58475;49.662;9.636;2023-05-10T06:05:42;4.10;;;2.35;;
70850;SDS011;58475;49.662;9.636;2023-05-10T06:08:08;4.25;;;2.30;;
70850;SDS011;58475;49.662;9.636;2023-05-10T06:10:33;6.40;;;2.58;;
70850;SDS011;58475;49.662;9.636;2023-05-10T06:12:59;4.80;;;2.03;;
70850;SDS011;58475;49.662;9.636;2023-05-10T06:15:24;3.67;;;1.70;;
70850;SDS011;58475;49.662;9.636;2023-05-10T06:17:50;3.72;;;2.00;;
70850;SDS011;58475;49.662;9.636;2023-05-10T06:20:16;3.58;;;1.80;;
70850;SDS011;58475;49.662;9.636;2023-05-10T06:22:41;3.33;;;2.10;;
70850;SDS011;58475;49.662;9.636;2023-05-10T06:25:07;5.70;;;2.15;;
70850;SDS011;58475;49.662;9.636;2023-05-10T06:27:33;3.92;;;2.10;;
70850;SDS011;58475;49.662;9.636;2023-05-10T06:29:58;3.95;;;1.95;;
70850;SDS011;58475;49.662;9.636;2023-05-10T06:32:24;4.68;;;2.08;;
70850;SDS011;58475;49.662;9.636;2023-05-10T06:34:49;5.00;;;2.20;;
70850;SDS011;58475;49.662;9.636;2023-05-10T06:37:15;5.00;;;2.50;;
70850;SDS011;58475;49.662;9.636;2023-05-10T06:39:40;3.83;;;1.90;;
70850;SDS011;58475;49.662;9.636;2023-05-10T06:42:06;4.25;;;2.00;;
70850;SDS011;58475;49.662;9.636;2023-05-10T06:44:31;3.58;;;2.00;;
70850;SDS011;58475;49.662;9.636;2023-05-10T06:46:57;5.30;;;1.80;;
70850;SDS011;58475;49.662;9.636;2023-05-10T06:49:22;2.92;;;1.80;;
70850;SDS011;58475;49.662;9.636;2023-05-10T06:51:48;4.22;;;1.90;;
70850;SDS011;58475;49.662;9.636;2023-05-10T06:54:14;5.03;;;1.95;;
70850;SDS011;58475;49.662;9.636;2023-05-10T06:56:39;3.65;;;1.90;;
70850;SDS011;58475;49.662;9.636;2023-05-10T06:59:04;3.63;;;1.85;;
70850;SDS011;58475;49.662;9.636;2023-05-10T07:01:30;4.30;;;1.88;;
70850;SDS011;58475;49.662;9.636;2023-05-10T07:03:55;4.75;;;2.00;;
70850;SDS011;58475;49.662;9.636;2023-05-10T07:06:21;7.10;;;2.20;;
70850;SDS011;58475;49.662;9.636;2023-05-10T07:08:46;4.32;;;2.20;;
70850;SDS011;58475;49.662;9.636;2023-05-10T07:11:11;3.80;;;1.92;;
70850;SDS011;58475;49.662;9.636;2023-05-10T07:13:37;5.07;;;2.20;;
70850;SDS011;58475;49.662;9.636;2023-05-10T07:16:04;6.85;;;2.28;;
70850;SDS011;58475;49.662;9.636;2023-05-10T07:18:31;4.70;;;2.10;;
70850;SDS011;58475;49.662;9.636;2023-05-10T07:20:57;3.83;;;1.88;;
70850;SDS011;58475;49.662;9.636;2023-05-10T07:23:22;5.60;;;2.13;;
70850;SDS011;58475;49.662;9.636;2023-05-10T07:25:48;4.85;;;2.00;;
70850;SDS011;58475;49.662;9.636;2023-05-10T07:28:14;4.13;;;2.10;;
70850;SDS011;58475;49.662;9.636;2023-05-10T07:30:40;3.75;;;1.80;;
70850;SDS011;58475;49.662;9.636;2023-05-10T07:33:06;3.80;;;1.90;;
70850;SDS011;58475;49.662;9.636;2023-05-10T07:35:33;6.68;;;2.03;;
70850;SDS011;58475;49.662;9.636;2023-05-10T07:37:58;3.72;;;2.10;;
70850;SDS011;58475;49.662;9.636;2023-05-10T07:40:24;4.65;;;2.00;;
70850;SDS011;58475;49.662;9.636;2023-05-10T07:42:49;3.83;;;1.80;;
70850;SDS011;58475;49.662;9.636;2023-05-10T07:45:14;4.25;;;1.83;;
70850;SDS011;58475;49.662;9.636;2023-05-10T07:47:40;3.80;;;1.70;;
70850;SDS011;58475;49.662;9.636;2023-05-10T07:50:05;6.78;;;2.00;;
70850;SDS011;58475;49.662;9.636;2023-05-10T07:52:33;4.30;;;2.00;;
70850;SDS011;58475;49.662;9.636;2023-05-10T07:54:59;5.97;;;2.00;;
70850;SDS011;58475;49.662;9.636;2023-05-10T07:57:24;4.00;;;1.90;;
70850;SDS011;58475;49.662;9.636;2023-05-10T07:59:50;4.35;;;2.00;;
70850;SDS011;58475;49.662;9.636;2023-05-10T08:02:15;7.80;;;2.13;;
70850;SDS011;58475;49.662;9.636;2023-05-10T08:04:41;4.70;;;2.30;;
70850;SDS011;58475;49.662;9.636;2023-05-10T08:07:06;4.97;;;2.00;;
70850;SDS011;58475;49.662;9.636;2023-05-10T08:09:32;5.63;;;2.17;;
70850;SDS011;58475;49.662;9.636;2023-05-10T08:11:57;3.40;;;2.00;;
70850;SDS011;58475;49.662;9.636;2023-05-10T08:14:24;5.22;;;2.30;;
70850;SDS011;58475;49.662;9.636;2023-05-10T08:16:49;3.88;;;2.20;;
70850;SDS011;58475;49.662;9.636;2023-05-10T08:19:15;3.22;;;2.03;;
70850;SDS011;58475;49.662;9.636;2023-05-10T08:21:44;4.30;;;2.17;;
70850;SDS011;58475;49.662;9.636;2023-05-10T08:24:09;4.30;;;2.20;;
70850;SDS011;58475;49.662;9.636;2023-05-10T08:26:35;3.60;;;2.10;;
70850;SDS011;58475;49.662;9.636;2023-05-10T08:29:00;3.70;;;2.00;;
70850;SDS011;58475;49.662;9.636;2023-05-10T08:31:26;4.68;;;2.15;;
70850;SDS011;58475;49.662;9.636;2023-05-10T08:33:51;4.00;;;1.85;;
70850;SDS011;58475;49.662;9.636;2023-05-10T08:36:17;3.92;;;1.92;;
70850;SDS011;58475;49.662;9.636;2023-05-10T08:38:46;2.88;;;1.77;;
70850;SDS011;58475;49.662;9.636;2023-05-10T08:41:12;3.42;;;2.00;;
70850;SDS011;58475;49.662;9.636;2023-05-10T08:43:38;4.68;;;1.95;;
70850;SDS011;58475;49.662;9.636;2023-05-10T08:46:04;3.13;;;1.98;;
70850;SDS011;58475;49.662;9.636;2023-05-10T08:48:32;3.83;;;2.08;;
70850;SDS011;58475;49.662;9.636;2023-05-10T08:50:59;3.33;;;1.88;;
70850;SDS011;58475;49.662;9.636;2023-05-10T08:53:27;4.20;;;2.00;;
70850;SDS011;58475;49.662;9.636;2023-05-10T08:55:56;4.40;;;2.10;;
70850;SDS011;58475;49.662;9.636;2023-05-10T08:58:21;3.45;;;1.70;;
70850;SDS011;58475;49.662;9.636;2023-05-10T09:00:48;4.22;;;1.60;;
70850;SDS011;58475;49.662;9.636;2023-05-10T09:03:14;3.42;;;1.70;;
70850;SDS011;58475;49.662;9.636;2023-05-10T09:05:40;3.53;;;1.75;;
70850;SDS011;58475;49.662;9.636;2023-05-10T09:08:07;3.80;;;1.65;;
70850;SDS011;58475;49.662;9.636;2023-05-10T09:10:33;2.47;;;1.65;;
70850;SDS011;58475;49.662;9.636;2023-05-10T09:12:59;3.25;;;1.77;;
70850;SDS011;58475;49.662;9.636;2023-05-10T09:15:24;3.90;;;1.88;;
70850;SDS011;58475;49.662;9.636;2023-05-10T09:17:50;3.25;;;1.50;;
70850;SDS011;58475;49.662;9.636;2023-05-10T09:20:15;3.30;;;1.50;;
70850;SDS011;58475;49.662;9.636;2023-05-10T09:22:42;2.42;;;1.60;;
70850;SDS011;58475;49.662;9.636;2023-05-10T09:27:36;2.80;;;1.65;;
70850;SDS011;58475;49.662;9.636;2023-05-10T09:30:03;2.85;;;1.52;;
70850;SDS011;58475;49.662;9.636;2023-05-10T09:32:39;2.53;;;1.48;;
70850;SDS011;58475;49.662;9.636;2023-05-10T09:35:07;2.22;;;1.40;;
70850;SDS011;58475;49.662;9.636;2023-05-10T09:37:39;3.35;;;1.52;;
70850;SDS011;58475;49.662;9.636;2023-05-10T09:40:27;3.03;;;1.65;;
70850;SDS011;58475;49.662;9.636;2023-05-10T09:42:55;2.67;;;1.58;;
70850;SDS011;58475;49.662;9.636;2023-05-10T09:45:30;2.85;;;1.48;;
70850;SDS011;58475;49.662;9.636;2023-05-10T09:47:56;3.45;;;1.40;;
70850;SDS011;58475;49.662;9.636;2023-05-10T09:50:23;3.75;;;1.45;;
70850;SDS011;58475;49.662;9.636;2023-05-10T09:52:53;1.73;;;1.35;;
70850;SDS011;58475;49.662;9.636;2023-05-10T09:55:21;2.92;;;1.55;;
70850;SDS011;58475;49.662;9.636;2023-05-10T09:57:49;3.20;;;1.70;;
70850;SDS011;58475;49.662;9.636;2023-05-10T10:00:23;3.17;;;1.52;;
70850;SDS011;58475;49.662;9.636;2023-05-10T10:02:54;3.20;;;1.70;;
70850;SDS011;58475;49.662;9.636;2023-05-10T10:07:56;3.58;;;1.60;;
70850;SDS011;58475;49.662;9.636;2023-05-10T10:10:23;2.45;;;1.35;;
70850;SDS011;58475;49.662;9.636;2023-05-10T10:12:49;3.85;;;1.80;;
70850;SDS011;58475;49.662;9.636;2023-05-10T10:15:15;2.90;;;1.55;;
70850;SDS011;58475;49.662;9.636;2023-05-10T10:17:40;2.53;;;1.40;;
70850;SDS011;58475;49.662;9.636;2023-05-10T10:20:08;3.63;;;1.55;;
70850;SDS011;58475;49.662;9.636;2023-05-10T10:22:34;2.40;;;1.45;;
70850;SDS011;58475;49.662;9.636;2023-05-10T10:25:01;3.05;;;1.50;;
70850;SDS011;58475;49.662;9.636;2023-05-10T10:27:34;2.72;;;1.92;;
70850;SDS011;58475;49.662;9.636;2023-05-10T10:35:39;3.85;;;1.48;;
70850;SDS011;58475;49.662;9.636;2023-05-10T10:38:07;4.53;;;1.75;;
70850;SDS011;58475;49.662;9.636;2023-05-10T10:40:33;3.42;;;1.60;;
70850;SDS011;58475;49.662;9.636;2023-05-10T10:43:20;2.88;;;1.63;;
70850;SDS011;58475;49.662;9.636;2023-05-10T10:46:10;3.25;;;1.77;;
70850;SDS011;58475;49.662;9.636;2023-05-10T10:48:37;3.17;;;1.70;;
70850;SDS011;58475;49.662;9.636;2023-05-10T10:51:02;2.67;;;1.60;;
70850;SDS011;58475;49.662;9.636;2023-05-10T10:53:28;3.00;;;1.50;;
70850;SDS011;58475;49.662;9.636;2023-05-10T10:56:09;4.85;;;1.60;;
70850;SDS011;58475;49.662;9.636;2023-05-10T10:58:39;3.42;;;1.65;;
70850;SDS011;58475;49.662;9.636;2023-05-10T11:01:12;3.13;;;1.60;;
70850;SDS011;58475;49.662;9.636;2023-05-10T11:03:39;2.17;;;1.40;;
70850;SDS011;58475;49.662;9.636;2023-05-10T11:06:05;2.40;;;1.55;;
70850;SDS011;58475;49.662;9.636;2023-05-10T11:08:31;5.00;;;1.55;;
70850;SDS011;58475;49.662;9.636;2023-05-10T11:13:27;3.00;;;1.50;;
70850;SDS011;58475;49.662;9.636;2023-05-10T11:16:09;2.80;;;1.50;;
70850;SDS011;58475;49.662;9.636;2023-05-10T11:18:37;1.73;;;1.40;;
70850;SDS011;58475;49.662;9.636;2023-05-10T11:21:03;1.83;;;1.40;;
70850;SDS011;58475;49.662;9.636;2023-05-10T11:23:47;2.13;;;1.40;;
70850;SDS011;58475;49.662;9.636;2023-05-10T11:26:14;3.83;;;1.50;;
70850;SDS011;58475;49.662;9.636;2023-05-10T11:28:43;2.08;;;1.40;;
70850;SDS011;58475;49.662;9.636;2023-05-10T11:31:10;2.72;;;1.35;;
70850;SDS011;58475;49.662;9.636;2023-05-10T11:33:43;2.92;;;1.40;;
70850;SDS011;58475;49.662;9.636;2023-05-10T11:36:20;1.88;;;1.23;;
70850;SDS011;58475;49.662;9.636;2023-05-10T11:38:48;2.78;;;1.50;;
70850;SDS011;58475;49.662;9.636;2023-05-10T11:41:14;2.47;;;1.48;;
70850;SDS011;58475;49.662;9.636;2023-05-10T11:43:41;5.03;;;1.50;;
70850;SDS011;58475;49.662;9.636;2023-05-10T11:46:11;3.38;;;1.42;;
70850;SDS011;58475;49.662;9.636;2023-05-10T11:48:40;2.80;;;1.70;;
70850;SDS011;58475;49.662;9.636;2023-05-10T11:51:09;2.28;;;1.20;;
70850;SDS011;58475;49.662;9.636;2023-05-10T11:53:36;1.50;;;1.40;;
70850;SDS011;58475;49.662;9.636;2023-05-10T11:56:08;1.80;;;1.40;;
70850;SDS011;58475;49.662;9.636;2023-05-10T11:58:35;3.05;;;1.48;;
70850;SDS011;58475;49.662;9.636;2023-05-10T12:01:03;2.78;;;1.50;;
70850;SDS011;58475;49.662;9.636;2023-05-10T12:03:30;4.25;;;1.65;;
70850;SDS011;58475;49.662;9.636;2023-05-10T12:05:56;2.15;;;1.50;;
70850;SDS011;58475;49.662;9.636;2023-05-10T12:08:23;3.30;;;1.63;;
70850;SDS011;58475;49.662;9.636;2023-05-10T12:10:50;2.20;;;1.63;;
70850;SDS011;58475;49.662;9.636;2023-05-10T12:13:16;2.67;;;1.70;;
70850;SDS011;58475;49.662;9.636;2023-05-10T12:15:42;4.63;;;2.00;;
70850;SDS011;58475;49.662;9.636;2023-05-10T12:18:11;3.90;;;2.00;;
70850;SDS011;58475;49.662;9.636;2023-05-10T12:20:38;3.05;;;1.90;;
70850;SDS011;58475;49.662;9.636;2023-05-10T12:23:04;3.55;;;2.05;;
70850;SDS011;58475;49.662;9.636;2023-05-10T12:25:34;3.88;;;2.00;;
70850;SDS011;58475;49.662;9.636;2023-05-10T12:28:04;2.70;;;1.90;;
70850;SDS011;58475;49.662;9.636;2023-05-10T12:30:32;3.10;;;1.70;;
70850;SDS011;58475;49.662;9.636;2023-05-10T12:33:08;3.28;;;1.88;;
70850;SDS011;58475;49.662;9.636;2023-05-10T12:35:45;3.28;;;1.90;;
70850;SDS011;58475;49.662;9.636;2023-05-10T12:38:27;2.90;;;1.90;;
70850;SDS011;58475;49.662;9.636;2023-05-10T12:40:55;3.28;;;1.90;;
70850;SDS011;58475;49.662;9.636;2023-05-10T12:43:24;3.50;;;1.88;;
70850;SDS011;58475;49.662;9.636;2023-05-10T12:45:49;2.97;;;2.00;;
70850;SDS011;58475;49.662;9.636;2023-05-10T12:48:15;3.50;;;1.95;;
70850;SDS011;58475;49.662;9.636;2023-05-10T12:50:40;3.60;;;1.88;;
70850;SDS011;58475;49.662;9.636;2023-05-10T12:53:06;2.60;;;1.65;;
70850;SDS011;58475;49.662;9.636;2023-05-10T12:55:31;2.85;;;1.70;;
70850;SDS011;58475;49.662;9.636;2023-05-10T12:57:57;2.88;;;1.60;;
70850;SDS011;58475;49.662;9.636;2023-05-10T13:00:22;2.92;;;1.80;;
70850;SDS011;58475;49.662;9.636;2023-05-10T13:02:47;2.72;;;1.65;;
70850;SDS011;58475;49.662;9.636;2023-05-10T13:05:13;2.35;;;1.58;;
70850;SDS011;58475;49.662;9.636;2023-05-10T13:07:38;2.65;;;1.70;;
70850;SDS011;58475;49.662;9.636;2023-05-10T13:10:04;3.58;;;1.60;;
70850;SDS011;58475;49.662;9.636;2023-05-10T13:12:31;3.35;;;1.80;;
70850;SDS011;58475;49.662;9.636;2023-05-10T13:14:56;3.60;;;1.60;;
70850;SDS011;58475;49.662;9.636;2023-05-10T13:17:22;4.40;;;1.80;;
70850;SDS011;58475;49.662;9.636;2023-05-10T13:19:47;2.80;;;1.67;;
70850;SDS011;58475;49.662;9.636;2023-05-10T13:22:12;3.80;;;1.40;;
70850;SDS011;58475;49.662;9.636;2023-05-10T13:24:38;3.28;;;1.90;;
70850;SDS011;58475;49.662;9.636;2023-05-10T13:27:03;2.58;;;1.75;;
70850;SDS011;58475;49.662;9.636;2023-05-10T13:29:28;3.13;;;1.70;;
70850;SDS011;58475;49.662;9.636;2023-05-10T13:31:54;3.70;;;1.70;;
70850;SDS011;58475;49.662;9.636;2023-05-10T13:34:19;2.72;;;1.77;;
70850;SDS011;58475;49.662;9.636;2023-05-10T13:36:45;2.72;;;1.55;;
70850;SDS011;58475;49.662;9.636;2023-05-10T13:39:11;3.90;;;1.80;;
70850;SDS011;58475;49.662;9.636;2023-05-10T13:41:37;2.88;;;1.60;;
70850;SDS011;58475;49.662;9.636;2023-05-10T13:44:02;3.03;;;1.60;;
70850;SDS011;58475;49.662;9.636;2023-05-10T13:46:28;3.47;;;1.60;;
70850;SDS011;58475;49.662;9.636;2023-05-10T13:48:54;3.90;;;1.83;;
70850;SDS011;58475;49.662;9.636;2023-05-10T13:51:20;2.25;;;1.60;;
70850;SDS011;58475;49.662;9.636;2023-05-10T13:53:45;1.98;;;1.45;;
70850;SDS011;58475;49.662;9.636;2023-05-10T13:56:12;4.28;;;1.70;;
70850;SDS011;58475;49.662;9.636;2023-05-10T13:58:38;2.90;;;1.52;;
70850;SDS011;58475;49.662;9.636;2023-05-10T14:01:03;3.30;;;1.80;;
70850;SDS011;58475;49.662;9.636;2023-05-10T14:03:29;3.63;;;1.60;;
70850;SDS011;58475;49.662;9.636;2023-05-10T14:05:55;2.40;;;1.60;;
70850;SDS011;58475;49.662;9.636;2023-05-10T14:08:20;3.08;;;1.70;;
70850;SDS011;58475;49.662;9.636;2023-05-10T14:10:46;3.53;;;1.60;;
70850;SDS011;58475;49.662;9.636;2023-05-10T14:13:12;4.35;;;1.60;;
70850;SDS011;58475;49.662;9.636;2023-05-10T14:15:37;3.58;;;1.63;;
70850;SDS011;58475;49.662;9.636;2023-05-10T14:18:03;4.20;;;1.50;;
70850;SDS011;58475;49.662;9.636;2023-05-10T14:20:28;3.10;;;1.50;;
70850;SDS011;58475;49.662;9.636;2023-05-10T14:22:54;3.60;;;2.08;;
70850;SDS011;58475;49.662;9.636;2023-05-10T14:25:19;2.58;;;1.60;;
70850;SDS011;58475;49.662;9.636;2023-05-10T14:27:45;4.45;;;1.90;;
70850;SDS011;58475;49.662;9.636;2023-05-10T14:30:10;3.97;;;2.13;;
70850;SDS011;58475;49.662;9.636;2023-05-10T14:32:36;3.60;;;1.80;;
70850;SDS011;58475;49.662;9.636;2023-05-10T14:35:02;3.28;;;1.80;;
70850;SDS011;58475;49.662;9.636;2023-05-10T14:37:28;4.60;;;1.90;;
70850;SDS011;58475;49.662;9.636;2023-05-10T14:39:56;3.15;;;1.67;;
70850;SDS011;58475;49.662;9.636;2023-05-10T14:42:21;2.42;;;1.60;;
70850;SDS011;58475;49.662;9.636;2023-05-10T14:44:47;4.22;;;1.80;;
70850;SDS011;58475;49.662;9.636;2023-05-10T14:47:12;4.18;;;1.88;;
70850;SDS011;58475;49.662;9.636;2023-05-10T14:49:37;7.93;;;2.25;;
70850;SDS011;58475;49.662;9.636;2023-05-10T14:52:02;3.83;;;1.70;;
70850;SDS011;58475;49.662;9.636;2023-05-10T14:54:28;3.70;;;1.95;;
70850;SDS011;58475;49.662;9.636;2023-05-10T14:56:53;4.57;;;1.70;;
70850;SDS011;58475;49.662;9.636;2023-05-10T14:59:20;3.85;;;1.70;;
70850;SDS011;58475;49.662;9.636;2023-05-10T15:01:45;3.20;;;1.60;;
70850;SDS011;58475;49.662;9.636;2023-05-10T15:04:11;3.83;;;1.67;;
70850;SDS011;58475;49.662;9.636;2023-05-10T15:06:38;4.07;;;1.80;;
70850;SDS011;58475;49.662;9.636;2023-05-10T15:09:03;4.40;;;1.77;;
70850;SDS011;58475;49.662;9.636;2023-05-10T15:11:29;3.47;;;1.50;;
70850;SDS011;58475;49.662;9.636;2023-05-10T15:13:54;5.05;;;1.88;;
70850;SDS011;58475;49.662;9.636;2023-05-10T15:16:20;3.88;;;1.67;;